Hesperides — EANN — position and weather

sailwx.info

Track history (hours):
 
Tides and Currents Weather Stations Pressure Air Temp Water Temp Dewpoint Dewpoint Depression Visibility Wind Speed Wind Dir Waves Ship Positions

Hesperides

Last reported at 2016-Dec-03 15:33 UTC. Time now 2016-Dec-05 00:31 UTC.
Position N 28°43' W 014°11'.

Length 122 m; draft 8 m.

Type: Tanker. MMSI: 224462000.

Date/timePositionNaut miles runAvg speedWind from/ knotsBaromVisibWave heightAir tempDewpointWater temp
2016-Dec-03 15:33N 28°43' W 014°11'10 9.2
2016-Dec-03 14:28N 28°39' W 014°21'8 8.9
2016-Dec-03 13:32N 28°35' W 014°29'8 8.7
2016-Dec-03 12:33N 28°31' W 014°38'9 8.8
2016-Dec-03 11:34N 28°27' W 014°47'8 8.5
2016-Dec-03 10:34N 28°24' W 014°56'9 8.9
2016-Dec-03 09:33N 28°20' W 015°05'9 8.7
2016-Dec-03 08:33N 28°16' W 015°14'3 3.3
2016-Dec-03 07:34N 28°13' W 015°15'7 6.5
2016-Dec-03 06:33N 28°16' W 015°21'9 8.5
2016-Dec-03 05:33N 28°17' W 015°31'8 8.0
2016-Dec-03 04:33N 28°19' W 015°40'8 7.8
2016-Dec-03 03:33N 28°21' W 015°48'8 8.2
2016-Dec-03 02:33N 28°24' W 015°57'11 8.3
2016-Dec-03 01:17N 28°27' W 016°08'5 6.1
2016-Dec-03 00:29N 28°29' W 016°13'1 0.0
2016-Dec-02 03:31N 28°28' W 016°13'8 8.3
2016-Dec-02 02:33N 28°26' W 016°04'9 9.3
2016-Dec-02 01:33N 28°22' W 015°54'9 9.2
2016-Dec-02 00:33N 28°19' W 015°44'9 9.3
2016-Dec-01 23:34N 28°16' W 015°35'9 9.1
2016-Dec-01 22:33N 28°13' W 015°25'8 7.7
2016-Dec-01 21:33N 28°07' W 015°21'8 8.1
2016-Dec-01 20:33N 27°58' W 015°22'1 0.1
2016-Dec-01 12:04N 27°59' W 015°23'0 0.0
2016-Dec-01 11:33N 27°59' W 015°23'0 0.0
2016-Dec-01 10:33N 27°59' W 015°23'0 0.0
2016-Nov-30 16:18N 27°59' W 015°23'3 4.5
2016-Nov-30 15:33N 28°00' W 015°19'9 9.4
2016-Nov-30 14:33N 28°10' W 015°19'7 7.5
2016-Nov-30 13:33N 28°15' W 015°26'9 9.1
2016-Nov-30 12:33N 28°17' W 015°36'9 9.0
2016-Nov-30 11:33N 28°20' W 015°45'9 9.1
2016-Nov-30 10:33N 28°23' W 015°55'9 9.0
2016-Nov-30 09:33N 28°26' W 016°05'8 8.2
2016-Nov-30 08:32N 28°29' W 016°14'0 0.5
2016-Nov-30 07:33N 28°29' W 016°13'0 0.0
2016-Nov-29 11:04N 28°29' W 016°13'1 2.0
2016-Nov-29 10:30N 28°28' W 016°13'2 2.4
2016-Nov-29 09:32N 28°26' W 016°13'0 0.2
2016-Nov-29 08:29N 28°26' W 016°12'8 3.9
2016-Nov-29 06:33N 28°25' W 016°04'9 8.8
2016-Nov-29 05:33N 28°31' W 015°57'9 8.5
2016-Nov-29 04:32N 28°37' W 015°50'7 6.9
2016-Nov-29 03:33N 28°36' W 015°42'8 7.9
2016-Nov-29 02:33N 28°32' W 015°35'8 8.1
2016-Nov-29 01:33N 28°27' W 015°27'8 7.9
2016-Nov-29 00:33N 28°22' W 015°20'8 7.7
2016-Nov-28 23:33N 28°18' W 015°13'8 7.9
2016-Nov-28 22:33N 28°13' W 015°05'8 7.8
2016-Nov-28 21:33N 28°09' W 014°58'8 7.9
2016-Nov-28 20:33N 28°05' W 014°50'8 8.0
2016-Nov-28 19:33N 28°02' W 014°42'10 7.9
2016-Nov-28 18:20N 27°60' W 014°31'7 8.0
2016-Nov-28 17:31N 28°00' W 014°24'15 7.9
2016-Nov-28 15:33N 28°05' W 014°07'31 9.2
2016-Nov-28 12:10N 28°29' W 013°44'6 9.7
2016-Nov-28 11:31N 28°34' W 013°41'1010.2
2016-Nov-28 10:34N 28°43' W 013°38'1110.1
2016-Nov-28 09:30N 28°53' W 013°33'4 0.2
2016-Nov-27 08:29N 28°57' W 013°32'8 7.9
2016-Nov-27 07:32N 28°52' W 013°39'65 8.2
2016-Nov-26 23:31N 28°43' W 014°53'8 8.1
2016-Nov-26 22:33N 28°42' W 015°02'8 7.6
2016-Nov-26 21:33N 28°41' W 015°10'8 8.1
2016-Nov-26 20:34N 28°41' W 015°20'8 8.1
2016-Nov-26 19:34N 28°40' W 015°29'8 8.3
2016-Nov-26 18:34N 28°39' W 015°38'8 8.1
2016-Nov-26 17:33N 28°39' W 015°47'7 7.3
2016-Nov-26 16:33N 28°35' W 015°55'7 7.4
2016-Nov-26 15:34N 28°32' W 016°02'8 8.1
2016-Nov-26 14:34N 28°29' W 016°10'3 0.2
2016-Nov-25 22:11N 28°29' W 016°13'0 0.7
2016-Nov-25 21:33N 28°29' W 016°13'0 0.0
2016-Nov-25 18:19N 28°29' W 016°13'0 0.0
2016-Nov-25 13:22N 28°29' W 016°13'0 0.0
2016-Nov-25 11:29N 28°29' W 016°13'1 1.2
2016-Nov-25 10:33N 28°28' W 016°12'9 9.1
2016-Nov-25 09:33N 28°25' W 016°02'10 9.8
2016-Nov-25 08:33N 28°22' W 015°52'10 9.6
2016-Nov-25 07:33N 28°20' W 015°41'10 9.7
2016-Nov-25 06:33N 28°18' W 015°30'9 9.3
2016-Nov-25 05:33N 28°15' W 015°20'9 9.5
2016-Nov-25 04:33N 28°13' W 015°10'10 9.5
2016-Nov-25 03:33N 28°10' W 014°60'10 9.6
2016-Nov-25 02:32N 28°06' W 014°49'10 9.8
2016-Nov-25 01:32N 28°03' W 014°39'29 9.5
2016-Nov-24 22:26N 28°07' W 014°05'  
Track history (hours):
 
Tides and Currents Weather Stations Pressure Air Temp Water Temp Dewpoint Dewpoint Depression Visibility Wind Speed Wind Dir Waves Ship Positions

Hesperides

Last reported at 2016-Dec-03 15:33 UTC. Time now 2016-Dec-05 00:31 UTC.
Position N 28°43' W 014°11'.

Length 122 m; draft 8 m.

Type: Tanker. MMSI: 224462000.

Date/timePositionNaut miles runAvg speedWind from/ knotsBaromVisibWave heightAir tempDewpointWater temp
2016-Dec-03 15:33N 28°43' W 014°11'10 9.2
2016-Dec-03 14:28N 28°39' W 014°21'8 8.9
2016-Dec-03 13:32N 28°35' W 014°29'8 8.7
2016-Dec-03 12:33N 28°31' W 014°38'9 8.8
2016-Dec-03 11:34N 28°27' W 014°47'8 8.5
2016-Dec-03 10:34N 28°24' W 014°56'9 8.9
2016-Dec-03 09:33N 28°20' W 015°05'9 8.7
2016-Dec-03 08:33N 28°16' W 015°14'3 3.3
2016-Dec-03 07:34N 28°13' W 015°15'7 6.5
2016-Dec-03 06:33N 28°16' W 015°21'9 8.5
2016-Dec-03 05:33N 28°17' W 015°31'8 8.0
2016-Dec-03 04:33N 28°19' W 015°40'8 7.8
2016-Dec-03 03:33N 28°21' W 015°48'8 8.2
2016-Dec-03 02:33N 28°24' W 015°57'11 8.3
2016-Dec-03 01:17N 28°27' W 016°08'5 6.1
2016-Dec-03 00:29N 28°29' W 016°13'1 0.0
2016-Dec-02 03:31N 28°28' W 016°13'8 8.3
2016-Dec-02 02:33N 28°26' W 016°04'9 9.3
2016-Dec-02 01:33N 28°22' W 015°54'9 9.2
2016-Dec-02 00:33N 28°19' W 015°44'9 9.3
2016-Dec-01 23:34N 28°16' W 015°35'9 9.1
2016-Dec-01 22:33N 28°13' W 015°25'8 7.7
2016-Dec-01 21:33N 28°07' W 015°21'8 8.1
2016-Dec-01 20:33N 27°58' W 015°22'1 0.1
2016-Dec-01 12:04N 27°59' W 015°23'0 0.0
2016-Dec-01 11:33N 27°59' W 015°23'0 0.0
2016-Dec-01 10:33N 27°59' W 015°23'0 0.0
2016-Nov-30 16:18N 27°59' W 015°23'3 4.5
2016-Nov-30 15:33N 28°00' W 015°19'9 9.4
2016-Nov-30 14:33N 28°10' W 015°19'7 7.5
2016-Nov-30 13:33N 28°15' W 015°26'9 9.1
2016-Nov-30 12:33N 28°17' W 015°36'9 9.0
2016-Nov-30 11:33N 28°20' W 015°45'9 9.1
2016-Nov-30 10:33N 28°23' W 015°55'9 9.0
2016-Nov-30 09:33N 28°26' W 016°05'8 8.2
2016-Nov-30 08:32N 28°29' W 016°14'0 0.5
2016-Nov-30 07:33N 28°29' W 016°13'0 0.0
2016-Nov-29 11:04N 28°29' W 016°13'1 2.0
2016-Nov-29 10:30N 28°28' W 016°13'2 2.4
2016-Nov-29 09:32N 28°26' W 016°13'0 0.2
2016-Nov-29 08:29N 28°26' W 016°12'8 3.9
2016-Nov-29 06:33N 28°25' W 016°04'9 8.8
2016-Nov-29 05:33N 28°31' W 015°57'9 8.5
2016-Nov-29 04:32N 28°37' W 015°50'7 6.9
2016-Nov-29 03:33N 28°36' W 015°42'8 7.9
2016-Nov-29 02:33N 28°32' W 015°35'8 8.1
2016-Nov-29 01:33N 28°27' W 015°27'8 7.9
2016-Nov-29 00:33N 28°22' W 015°20'8 7.7
2016-Nov-28 23:33N 28°18' W 015°13'8 7.9
2016-Nov-28 22:33N 28°13' W 015°05'8 7.8
2016-Nov-28 21:33N 28°09' W 014°58'8 7.9
2016-Nov-28 20:33N 28°05' W 014°50'8 8.0
2016-Nov-28 19:33N 28°02' W 014°42'10 7.9
2016-Nov-28 18:20N 27°60' W 014°31'7 8.0
2016-Nov-28 17:31N 28°00' W 014°24'15 7.9
2016-Nov-28 15:33N 28°05' W 014°07'31 9.2
2016-Nov-28 12:10N 28°29' W 013°44'6 9.7
2016-Nov-28 11:31N 28°34' W 013°41'1010.2
2016-Nov-28 10:34N 28°43' W 013°38'1110.1
2016-Nov-28 09:30N 28°53' W 013°33'4 0.2
2016-Nov-27 08:29N 28°57' W 013°32'8 7.9
2016-Nov-27 07:32N 28°52' W 013°39'65 8.2
2016-Nov-26 23:31N 28°43' W 014°53'8 8.1
2016-Nov-26 22:33N 28°42' W 015°02'8 7.6
2016-Nov-26 21:33N 28°41' W 015°10'8 8.1
2016-Nov-26 20:34N 28°41' W 015°20'8 8.1
2016-Nov-26 19:34N 28°40' W 015°29'8 8.3
2016-Nov-26 18:34N 28°39' W 015°38'8 8.1
2016-Nov-26 17:33N 28°39' W 015°47'7 7.3
2016-Nov-26 16:33N 28°35' W 015°55'7 7.4
2016-Nov-26 15:34N 28°32' W 016°02'8 8.1
2016-Nov-26 14:34N 28°29' W 016°10'3 0.2
2016-Nov-25 22:11N 28°29' W 016°13'0 0.7
2016-Nov-25 21:33N 28°29' W 016°13'0 0.0
2016-Nov-25 18:19N 28°29' W 016°13'0 0.0
2016-Nov-25 13:22N 28°29' W 016°13'0 0.0
2016-Nov-25 11:29N 28°29' W 016°13'1 1.2
2016-Nov-25 10:33N 28°28' W 016°12'9 9.1
2016-Nov-25 09:33N 28°25' W 016°02'10 9.8
2016-Nov-25 08:33N 28°22' W 015°52'10 9.6
2016-Nov-25 07:33N 28°20' W 015°41'10 9.7
2016-Nov-25 06:33N 28°18' W 015°30'9 9.3
2016-Nov-25 05:33N 28°15' W 015°20'9 9.5
2016-Nov-25 04:33N 28°13' W 015°10'10 9.5
2016-Nov-25 03:33N 28°10' W 014°60'10 9.6
2016-Nov-25 02:32N 28°06' W 014°49'10 9.8
2016-Nov-25 01:32N 28°03' W 014°39'29 9.5
2016-Nov-24 22:26N 28°07' W 014°05'  

Dump ship's entire track history